Time;durP1;ratioP1;P1;durP2;ratioP2;P2;SDS_P1;SDS_P2;PMS_P1;PMS_P2;Temp;Humidity;BMP_temperature;BMP_pressure;BME280_temperature;BME280_humidity;BME280_pressure;Samples;Min_cycle;Max_cycle;Signal;HPM_P1;HPM_P2
2023/10/25 00:01:41;;;;;;;30.57;28.17;;;;;;;;;;5051861;28;20465;-76
2023/10/25 00:04:08;;;;;;;33.87;30.97;;;;;;;;;;5051341;28;20418;-77
2023/10/25 00:06:35;;;;;;;32.90;30.00;;;;;;;;;;5051145;28;20772;-76
2023/10/25 00:09:02;;;;;;;31.03;28.33;;;;;;;;;;5053704;28;20456;-76
2023/10/25 00:11:30;;;;;;;33.37;30.50;;;;;;;;;;5051651;28;20433;-76
2023/10/25 00:13:57;;;;;;;31.93;29.20;;;;;;;;;;5050952;28;20429;-78
2023/10/25 00:16:24;;;;;;;33.13;29.93;;;;;;;;;;5051838;28;20417;-76
2023/10/25 00:18:51;;;;;;;34.53;31.60;;;;;;;;;;5051809;28;20417;-77
2023/10/25 00:21:18;;;;;;;34.23;31.23;;;;;;;;;;5051676;28;20443;-76
2023/10/25 00:23:45;;;;;;;33.87;31.10;;;;;;;;;;5051072;28;20446;-76
2023/10/25 00:26:12;;;;;;;34.20;31.20;;;;;;;;;;5051127;28;20999;-77
2023/10/25 00:28:41;;;;;;;34.20;31.30;;;;;;;;;;5051235;28;20441;-76
2023/10/25 00:31:08;;;;;;;33.37;30.50;;;;;;;;;;5051249;28;20428;-76
2023/10/25 00:33:35;;;;;;;33.97;31.10;;;;;;;;;;5051072;28;20452;-75
2023/10/25 00:36:02;;;;;;;31.33;28.70;;;;;;;;;;5050566;28;20428;-76
2023/10/25 00:38:29;;;;;;;32.83;30.10;;;;;;;;;;5050610;28;20498;-75
2023/10/25 00:40:56;;;;;;;33.03;30.03;;;;;;;;;;5049956;28;20421;-76
2023/10/25 00:43:24;;;;;;;33.97;30.97;;;;;;;;;;5051163;28;20477;-77
2023/10/25 00:46:06;;;;;;;33.37;30.47;;;;;;;;;;5050288;28;20518;-76
2023/10/25 00:48:35;;;;;;;31.33;28.83;;;;;;;;;;5050730;28;20470;-76
2023/10/25 00:51:02;;;;;;;32.83;30.03;;;;;;;;;;5050879;28;20911;-75
2023/10/25 00:53:30;;;;;;;32.70;30.20;;;;;;;;;;5050706;28;20450;-76
2023/10/25 00:55:58;;;;;;;34.00;31.20;;;;;;;;;;5050223;28;20450;-76
2023/10/25 00:58:26;;;;;;;31.93;29.40;;;;;;;;;;5050628;28;20524;-77
2023/10/25 01:00:55;;;;;;;34.40;31.47;;;;;;;;;;5050386;28;20455;-77
2023/10/25 01:03:24;;;;;;;34.13;31.03;;;;;;;;;;5050313;28;20508;-77
2023/10/25 01:05:51;;;;;;;32.57;29.97;;;;;;;;;;5050161;28;20479;-76
2023/10/25 01:08:20;;;;;;;30.33;28.20;;;;;;;;;;5050441;28;20473;-77
2023/10/25 01:10:48;;;;;;;31.47;28.63;;;;;;;;;;5050336;28;20585;-76
2023/10/25 01:13:15;;;;;;;32.53;29.93;;;;;;;;;;5050567;28;20537;-75
2023/10/25 01:15:42;;;;;;;32.50;29.77;;;;;;;;;;5049758;28;20543;-76
2023/10/25 01:18:09;;;;;;;33.37;30.37;;;;;;;;;;5050124;28;20996;-75
2023/10/25 01:20:37;;;;;;;32.10;28.97;;;;;;;;;;5050333;28;20418;-75
2023/10/25 01:23:06;;;;;;;33.53;30.97;;;;;;;;;;5050507;28;20454;-76
2023/10/25 01:25:33;;;;;;;31.48;28.98;;;;;;;;;;5050168;28;20417;-75
2023/10/25 01:28:00;;;;;;;31.30;28.83;;;;;;;;;;5050773;28;20234;-76
2023/10/25 01:30:27;;;;;;;32.13;29.40;;;;;;;;;;5050360;28;20497;-77
2023/10/25 01:32:54;;;;;;;31.63;29.02;;;;;;;;;;5050604;28;20455;-76
2023/10/25 01:35:22;;;;;;;29.88;27.67;;;;;;;;;;5050065;28;20204;-77
2023/10/25 01:37:49;;;;;;;33.00;30.10;;;;;;;;;;5050425;28;20231;-76
2023/10/25 01:40:17;;;;;;;31.80;29.00;;;;;;;;;;5050531;28;20270;-76
2023/10/25 01:42:44;;;;;;;30.33;28.03;;;;;;;;;;5050281;28;20475;-76
2023/10/25 01:45:11;;;;;;;30.60;28.17;;;;;;;;;;5049625;28;20440;-77
2023/10/25 01:47:39;;;;;;;33.23;30.47;;;;;;;;;;5049859;28;21032;-76
2023/10/25 01:50:06;;;;;;;31.63;28.95;;;;;;;;;;5050089;28;20487;-76
2023/10/25 01:52:33;;;;;;;32.30;29.85;;;;;;;;;;5052110;28;20570;-75
2023/10/25 01:55:00;;;;;;;31.10;28.30;;;;;;;;;;5053889;28;20210;-76
2023/10/25 01:57:29;;;;;;;32.07;29.37;;;;;;;;;;5054003;28;20452;-76
2023/10/25 01:59:56;;;;;;;31.00;28.30;;;;;;;;;;5054319;28;20445;-76
2023/10/25 02:02:23;;;;;;;29.27;26.90;;;;;;;;;;5054370;28;20454;-76
2023/10/25 02:04:50;;;;;;;30.50;28.10;;;;;;;;;;5053650;28;20446;-76
2023/10/25 02:07:17;;;;;;;32.13;29.13;;;;;;;;;;5053893;28;20441;-76
2023/10/25 02:09:45;;;;;;;30.83;28.23;;;;;;;;;;5053666;28;20488;-75
2023/10/25 02:12:12;;;;;;;32.13;29.10;;;;;;;;;;5053434;28;20436;-76
2023/10/25 02:14:40;;;;;;;29.93;27.30;;;;;;;;;;5053336;28;20446;-76
2023/10/25 02:17:07;;;;;;;29.50;27.30;;;;;;;;;;5053830;28;20449;-76
2023/10/25 02:19:35;;;;;;;29.10;26.90;;;;;;;;;;5053912;28;20215;-77
2023/10/25 02:22:02;;;;;;;30.50;28.27;;;;;;;;;;5053404;28;20450;-76
2023/10/25 02:24:29;;;;;;;31.90;29.03;;;;;;;;;;5052879;28;20747;-77
2023/10/25 02:26:56;;;;;;;29.70;27.03;;;;;;;;;;5053542;28;20470;-76
2023/10/25 02:29:23;;;;;;;29.57;27.37;;;;;;;;;;5053165;28;20465;-77
2023/10/25 02:31:52;;;;;;;30.27;27.97;;;;;;;;;;5053710;28;20846;-76
2023/10/25 02:34:19;;;;;;;32.90;30.10;;;;;;;;;;5052653;28;20533;-77
2023/10/25 02:36:46;;;;;;;31.13;28.73;;;;;;;;;;5052513;28;20536;-76
2023/10/25 02:39:13;;;;;;;33.00;30.40;;;;;;;;;;5052856;28;20424;-76
2023/10/25 02:41:40;;;;;;;31.40;28.70;;;;;;;;;;5053484;28;20475;-75
2023/10/25 02:44:07;;;;;;;30.83;28.20;;;;;;;;;;5052452;28;20508;-75
2023/10/25 02:46:34;;;;;;;30.97;28.50;;;;;;;;;;5053280;28;20500;-76
2023/10/25 02:49:03;;;;;;;31.53;28.83;;;;;;;;;;5053016;28;20849;-75
2023/10/25 02:51:30;;;;;;;32.50;29.50;;;;;;;;;;5053060;28;20512;-76
2023/10/25 02:53:57;;;;;;;31.10;28.27;;;;;;;;;;5052143;28;20454;-76
2023/10/25 02:56:24;;;;;;;31.00;28.10;;;;;;;;;;5052581;28;20426;-77
2023/10/25 02:58:51;;;;;;;28.70;26.60;;;;;;;;;;5052969;28;20464;-77
2023/10/25 03:01:22;;;;;;;29.75;27.27;;;;;;;;;;5053098;28;20447;-76
2023/10/25 03:03:49;;;;;;;31.80;29.10;;;;;;;;;;5051214;28;20299;-77
2023/10/25 03:06:17;;;;;;;31.50;29.00;;;;;;;;;;5052742;28;20451;-75
2023/10/25 03:08:44;;;;;;;30.90;28.30;;;;;;;;;;5052668;28;20814;-77
2023/10/25 03:11:11;;;;;;;29.77;27.30;;;;;;;;;;5051750;28;20509;-77
2023/10/25 03:13:39;;;;;;;28.67;26.50;;;;;;;;;;5052710;28;20451;-76
2023/10/25 03:16:06;;;;;;;30.23;27.93;;;;;;;;;;5052308;28;20459;-76
2023/10/25 03:18:33;;;;;;;31.80;29.20;;;;;;;;;;5052906;28;20524;-76
2023/10/25 03:21:02;;;;;;;30.23;27.83;;;;;;;;;;5052741;28;20448;-75
2023/10/25 03:23:30;;;;;;;30.53;28.00;;;;;;;;;;5052719;28;20541;-77
2023/10/25 03:25:57;;;;;;;29.20;27.10;;;;;;;;;;5052604;28;20454;-76
2023/10/25 03:28:24;;;;;;;31.10;28.57;;;;;;;;;;5053144;28;20483;-76
2023/10/25 03:30:51;;;;;;;32.20;29.00;;;;;;;;;;5052546;28;20482;-76
2023/10/25 03:33:18;;;;;;;29.43;27.03;;;;;;;;;;5052876;28;20450;-77
2023/10/25 03:35:52;;;;;;;33.87;30.47;;;;;;;;;;5051723;28;20461;-76
2023/10/25 03:38:19;;;;;;;31.30;28.50;;;;;;;;;;5052454;28;20550;-77
2023/10/25 03:40:47;;;;;;;29.70;27.50;;;;;;;;;;5052428;28;20422;-76
2023/10/25 03:43:14;;;;;;;32.92;29.83;;;;;;;;;;5052172;28;20269;-76
2023/10/25 03:45:41;;;;;;;31.20;28.70;;;;;;;;;;5051591;28;20270;-76
2023/10/25 03:48:08;;;;;;;30.50;27.90;;;;;;;;;;5051925;28;20453;-76
2023/10/25 03:50:37;;;;;;;29.83;27.40;;;;;;;;;;5052018;28;20466;-75
2023/10/25 03:53:04;;;;;;;31.33;28.33;;;;;;;;;;5052022;28;20457;-77
2023/10/25 03:55:31;;;;;;;31.57;28.60;;;;;;;;;;5051462;28;20454;-76
2023/10/25 03:57:59;;;;;;;30.93;28.43;;;;;;;;;;5051746;28;20482;-77
2023/10/25 04:00:27;;;;;;;31.00;28.60;;;;;;;;;;5051734;28;20439;-76
2023/10/25 04:02:54;;;;;;;30.20;27.70;;;;;;;;;;5065860;28;20964;-76
2023/10/25 04:05:21;;;;;;;31.23;28.73;;;;;;;;;;5071198;28;20537;-77
2023/10/25 04:07:51;;;;;;;31.13;28.77;;;;;;;;;;5071780;28;20469;-76
2023/10/25 04:10:18;;;;;;;30.43;27.83;;;;;;;;;;5071495;28;21201;-76
2023/10/25 04:12:45;;;;;;;30.90;28.30;;;;;;;;;;5071639;28;20517;-77
2023/10/25 04:15:14;;;;;;;30.48;27.92;;;;;;;;;;5070477;28;20215;-75
2023/10/25 04:17:41;;;;;;;31.50;28.95;;;;;;;;;;5071121;28;20246;-75
2023/10/25 04:20:09;;;;;;;29.47;27.23;;;;;;;;;;5071173;28;20718;-76
2023/10/25 04:22:37;;;;;;;32.10;28.83;;;;;;;;;;5071248;28;20503;-76
2023/10/25 04:25:05;;;;;;;32.73;29.60;;;;;;;;;;5070563;28;20450;-77
2023/10/25 04:27:32;;;;;;;31.67;28.73;;;;;;;;;;5071069;28;20467;-76
2023/10/25 04:29:59;;;;;;;31.40;28.90;;;;;;;;;;5071152;28;20229;-77
2023/10/25 04:32:27;;;;;;;32.60;29.77;;;;;;;;;;5071016;28;20450;-77
2023/10/25 04:34:54;;;;;;;33.63;30.60;;;;;;;;;;5070541;28;20461;-76
2023/10/25 04:37:21;;;;;;;33.50;30.20;;;;;;;;;;5070853;28;20444;-77
2023/10/25 04:39:48;;;;;;;33.08;29.75;;;;;;;;;;5071028;28;20929;-76
2023/10/25 04:42:15;;;;;;;33.40;30.80;;;;;;;;;;5070071;28;20208;-76
2023/10/25 04:44:42;;;;;;;33.43;30.73;;;;;;;;;;5070154;28;20808;-77
2023/10/25 04:47:10;;;;;;;32.40;29.90;;;;;;;;;;5070974;28;20474;-78
2023/10/25 04:49:39;;;;;;;32.07;29.53;;;;;;;;;;5070915;28;20424;-76
2023/10/25 04:52:06;;;;;;;33.80;30.90;;;;;;;;;;5070784;28;20452;-76
2023/10/25 04:54:33;;;;;;;32.43;29.80;;;;;;;;;;5069994;28;20452;-77
2023/10/25 04:57:00;;;;;;;31.67;29.00;;;;;;;;;;5070430;28;20986;-75
2023/10/25 04:59:29;;;;;;;32.70;30.00;;;;;;;;;;5070492;28;20445;-76
2023/10/25 05:01:56;;;;;;;32.23;29.83;;;;;;;;;;5070377;28;20988;-75
2023/10/25 05:04:23;;;;;;;33.70;30.90;;;;;;;;;;5070479;28;20430;-76
2023/10/25 05:06:52;;;;;;;31.37;28.77;;;;;;;;;;5070833;28;20956;-76
2023/10/25 05:09:19;;;;;;;30.57;27.97;;;;;;;;;;5070586;28;20883;-77
2023/10/25 05:11:55;;;;;;;32.03;29.15;;;;;;;;;;5069881;28;20504;-75
2023/10/25 05:14:22;;;;;;;31.90;29.20;;;;;;;;;;5069619;28;20589;-77
2023/10/25 05:16:49;;;;;;;29.50;27.50;;;;;;;;;;5063935;28;20470;-76
2023/10/25 05:19:17;;;;;;;32.03;29.63;;;;;;;;;;5050657;28;20446;-76
2023/10/25 05:21:44;;;;;;;32.33;29.80;;;;;;;;;;5050137;28;20438;-77
2023/10/25 05:24:13;;;;;;;32.50;29.70;;;;;;;;;;5064484;28;20532;-75
2023/10/25 05:26:40;;;;;;;34.87;31.37;;;;;;;;;;5069793;28;20535;-76
2023/10/25 05:29:07;;;;;;;32.97;30.37;;;;;;;;;;5070475;28;20769;-77
2023/10/25 05:31:35;;;;;;;34.33;31.53;;;;;;;;;;5070224;28;20489;-77
2023/10/25 05:34:03;;;;;;;31.87;29.47;;;;;;;;;;5069868;28;20453;-77
2023/10/25 05:36:30;;;;;;;31.13;28.57;;;;;;;;;;5070690;28;20506;-77
2023/10/25 05:38:57;;;;;;;31.53;29.20;;;;;;;;;;5058537;28;20451;-75
2023/10/25 05:41:27;;;;;;;31.57;29.17;;;;;;;;;;5050388;28;20530;-77
2023/10/25 05:43:59;;;;;;;31.23;28.67;;;;;;;;;;5049757;28;20443;-76
2023/10/25 05:46:26;;;;;;;32.43;29.27;;;;;;;;;;5050290;28;20476;-77
2023/10/25 05:48:54;;;;;;;31.03;28.50;;;;;;;;;;5052170;28;20462;-76
2023/10/25 05:51:21;;;;;;;32.67;30.10;;;;;;;;;;5059425;28;20481;-77
2023/10/25 05:53:50;;;;;;;32.57;29.50;;;;;;;;;;5049735;28;20482;-77
2023/10/25 05:56:18;;;;;;;30.67;28.27;;;;;;;;;;5050215;28;20537;-77
2023/10/25 05:58:46;;;;;;;33.13;30.53;;;;;;;;;;5050101;28;20525;-76
2023/10/25 06:01:14;;;;;;;31.30;28.97;;;;;;;;;;5050027;28;20438;-77
2023/10/25 06:03:45;;;;;;;30.70;28.20;;;;;;;;;;5050211;28;20942;-77
2023/10/25 06:06:14;;;;;;;32.87;29.87;;;;;;;;;;5050217;28;20439;-77
2023/10/25 06:08:41;;;;;;;32.83;29.75;;;;;;;;;;5050582;28;20470;-76
2023/10/25 06:11:09;;;;;;;29.70;27.27;;;;;;;;;;5049694;28;20228;-77
2023/10/25 06:13:36;;;;;;;32.88;30.02;;;;;;;;;;5050162;28;20294;-77
2023/10/25 06:16:04;;;;;;;32.97;30.27;;;;;;;;;;5049663;28;20212;-76
2023/10/25 06:18:31;;;;;;;33.60;30.90;;;;;;;;;;5050096;28;20474;-75
2023/10/25 06:20:58;;;;;;;31.40;28.90;;;;;;;;;;5050005;28;20438;-77
2023/10/25 06:23:25;;;;;;;29.30;27.10;;;;;;;;;;5050045;28;20446;-76
2023/10/25 06:25:52;;;;;;;31.47;28.70;;;;;;;;;;5049403;28;20802;-75
2023/10/25 06:28:19;;;;;;;33.10;30.30;;;;;;;;;;5049993;28;20470;-76
2023/10/25 06:30:47;;;;;;;32.33;29.30;;;;;;;;;;5049998;28;20468;-77
2023/10/25 06:33:15;;;;;;;30.63;28.20;;;;;;;;;;5049978;28;20787;-76
2023/10/25 06:35:43;;;;;;;30.93;27.97;;;;;;;;;;5049690;28;20446;-77
2023/10/25 06:38:11;;;;;;;32.03;29.17;;;;;;;;;;5050975;28;20499;-77
2023/10/25 06:40:38;;;;;;;32.37;29.43;;;;;;;;;;5054032;28;20446;-76
2023/10/25 06:43:05;;;;;;;31.17;28.33;;;;;;;;;;5053879;28;20446;-75
2023/10/25 06:45:33;;;;;;;30.55;28.25;;;;;;;;;;5053588;28;20501;-76
2023/10/25 06:48:00;;;;;;;30.30;27.70;;;;;;;;;;5053527;28;20228;-76
2023/10/25 06:50:30;;;;;;;30.67;27.88;;;;;;;;;;5060810;28;20448;-76
2023/10/25 06:52:57;;;;;;;30.13;27.73;;;;;;;;;;5070669;28;20206;-76
2023/10/25 06:55:24;;;;;;;29.87;27.67;;;;;;;;;;5063262;28;20443;-76
2023/10/25 06:57:52;;;;;;;30.73;28.33;;;;;;;;;;5053336;28;20437;-76
2023/10/25 07:00:19;;;;;;;29.37;26.70;;;;;;;;;;5053279;28;20204;-76
2023/10/25 07:02:51;;;;;;;28.30;26.20;;;;;;;;;;5053336;28;20443;-76
2023/10/25 07:05:20;;;;;;;30.33;27.93;;;;;;;;;;5051394;28;20524;-77
2023/10/25 07:07:50;;;;;;;29.27;27.07;;;;;;;;;;5062084;28;20474;-77
2023/10/25 07:10:17;;;;;;;28.17;26.17;;;;;;;;;;5072369;28;20408;-76
2023/10/25 07:12:45;;;;;;;31.00;28.40;;;;;;;;;;5072762;28;20474;-75
2023/10/25 07:15:12;;;;;;;29.17;27.07;;;;;;;;;;5072458;28;20453;-76
2023/10/25 07:17:41;;;;;;;28.67;26.47;;;;;;;;;;5072773;28;20868;-76
2023/10/25 07:20:09;;;;;;;28.57;26.37;;;;;;;;;;5072515;28;20428;-78
2023/10/25 07:22:36;;;;;;;29.37;26.50;;;;;;;;;;5072894;28;20872;-77
2023/10/25 07:25:05;;;;;;;29.57;27.10;;;;;;;;;;5071875;28;20817;-77
2023/10/25 07:27:32;;;;;;;28.40;25.70;;;;;;;;;;5072606;28;20448;-76
2023/10/25 07:29:59;;;;;;;28.30;26.05;;;;;;;;;;5072706;28;20499;-77
2023/10/25 07:32:26;;;;;;;27.97;25.97;;;;;;;;;;5059703;28;20227;-77
2023/10/25 07:34:53;;;;;;;27.70;25.90;;;;;;;;;;5051166;28;20417;-76
2023/10/25 07:37:20;;;;;;;26.60;24.60;;;;;;;;;;5052191;28;20470;-76
2023/10/25 07:39:47;;;;;;;26.83;25.07;;;;;;;;;;5052210;28;20474;-77
2023/10/25 07:42:16;;;;;;;27.53;25.57;;;;;;;;;;5052531;28;20429;-76
2023/10/25 07:44:43;;;;;;;26.30;24.60;;;;;;;;;;5051392;28;20474;-75
2023/10/25 07:47:10;;;;;;;26.90;24.90;;;;;;;;;;5052760;28;20444;-80
2023/10/25 07:49:37;;;;;;;25.17;23.47;;;;;;;;;;5052814;28;20501;-78
2023/10/25 07:52:05;;;;;;;25.57;23.77;;;;;;;;;;5052746;28;21246;-79
2023/10/25 07:54:32;;;;;;;24.67;23.07;;;;;;;;;;5054118;28;20835;-78
2023/10/25 07:56:59;;;;;;;25.10;23.40;;;;;;;;;;5051678;28;20985;-78
2023/10/25 07:59:27;;;;;;;24.90;23.20;;;;;;;;;;5051653;28;20442;-78
2023/10/25 08:01:54;;;;;;;25.67;23.87;;;;;;;;;;5052390;28;20421;-78
2023/10/25 08:04:21;;;;;;;26.07;24.03;;;;;;;;;;5052267;28;20432;-77
2023/10/25 08:06:48;;;;;;;25.23;23.20;;;;;;;;;;5053524;28;20508;-78
2023/10/25 08:09:15;;;;;;;26.30;24.20;;;;;;;;;;5053531;28;20401;-78
2023/10/25 08:11:43;;;;;;;25.33;23.53;;;;;;;;;;5052585;28;20486;-78
2023/10/25 08:14:10;;;;;;;26.03;24.40;;;;;;;;;;5053192;28;20495;-78
2023/10/25 08:16:39;;;;;;;26.67;24.47;;;;;;;;;;5052677;28;20442;-79
2023/10/25 08:19:06;;;;;;;26.10;24.30;;;;;;;;;;5054764;28;20437;-81
2023/10/25 08:21:33;;;;;;;23.40;21.87;;;;;;;;;;5059259;28;20454;-79
2023/10/25 08:24:01;;;;;;;25.50;23.80;;;;;;;;;;5059429;28;20453;-80
2023/10/25 08:26:27;;;;;;;24.37;22.80;;;;;;;;;;5054704;28;20432;-80
2023/10/25 08:28:54;;;;;;;26.27;23.77;;;;;;;;;;5055071;28;20451;-78
2023/10/25 08:31:21;;;;;;;24.70;23.10;;;;;;;;;;5071896;28;20529;-79
2023/10/25 08:33:49;;;;;;;22.97;21.47;;;;;;;;;;5074906;28;20457;-79
2023/10/25 08:36:16;;;;;;;23.70;22.00;;;;;;;;;;5076065;28;20462;-79
2023/10/25 08:38:43;;;;;;;23.60;22.10;;;;;;;;;;5076427;28;20453;-80
2023/10/25 08:41:11;;;;;;;22.77;21.37;;;;;;;;;;5076615;28;20450;-80
2023/10/25 08:43:39;;;;;;;23.17;21.80;;;;;;;;;;5062785;28;20581;-81
2023/10/25 08:46:07;;;;;;;22.20;20.87;;;;;;;;;;5057418;28;21013;-82
2023/10/25 08:48:34;;;;;;;24.10;22.60;;;;;;;;;;5058047;28;20458;-81
2023/10/25 08:51:04;;;;;;;23.57;22.10;;;;;;;;;;5075452;28;20503;-78
2023/10/25 08:53:31;;;;;;;22.73;21.10;;;;;;;;;;5074894;28;20438;-79
2023/10/25 08:55:59;;;;;;;24.00;22.00;;;;;;;;;;5074084;28;20420;-77
2023/10/25 08:58:26;;;;;;;22.40;21.10;;;;;;;;;;5050680;28;20529;-77
2023/10/25 09:00:54;;;;;;;21.90;20.60;;;;;;;;;;5054503;28;20458;-79
2023/10/25 09:03:40;;;;;;;21.20;20.00;;;;;;;;;;5055314;28;20438;-79
2023/10/25 09:06:09;;;;;;;22.17;20.87;;;;;;;;;;5055734;28;20478;-83
2023/10/25 09:08:37;;;;;;;20.70;19.60;;;;;;;;;;5054984;28;20471;-79
2023/10/25 09:11:06;;;;;;;21.50;20.10;;;;;;;;;;5053310;28;20451;-79
2023/10/25 09:13:35;;;;;;;21.53;20.30;;;;;;;;;;5053635;28;20486;-79
2023/10/25 09:16:06;;;;;;;21.20;19.80;;;;;;;;;;5052849;28;20505;-79
2023/10/25 09:18:33;;;;;;;20.30;19.20;;;;;;;;;;5053448;28;20466;-80
2023/10/25 09:21:01;;;;;;;20.80;19.70;;;;;;;;;;5053533;28;20484;-79
2023/10/25 09:23:29;;;;;;;19.20;18.20;;;;;;;;;;5053522;28;20442;-79
2023/10/25 09:25:57;;;;;;;20.53;19.33;;;;;;;;;;5052671;28;20809;-78
2023/10/25 09:28:30;;;;;;;20.40;19.00;;;;;;;;;;5053187;28;20478;-78
2023/10/25 09:30:58;;;;;;;20.37;19.07;;;;;;;;;;5053114;28;20485;-79
2023/10/25 09:33:25;;;;;;;20.63;19.13;;;;;;;;;;5052564;28;20553;-78
2023/10/25 09:35:53;;;;;;;21.87;20.57;;;;;;;;;;5052740;28;20450;-79
2023/10/25 09:38:20;;;;;;;20.10;19.10;;;;;;;;;;5051780;28;20482;-78
2023/10/25 09:40:49;;;;;;;19.97;18.83;;;;;;;;;;5054664;28;20477;-79
2023/10/25 09:43:19;;;;;;;20.10;18.80;;;;;;;;;;5052719;28;20442;-79
2023/10/25 09:45:50;;;;;;;20.23;18.90;;;;;;;;;;5051708;28;20684;-78
2023/10/25 09:48:19;;;;;;;22.40;20.80;;;;;;;;;;5050689;28;21137;-80
2023/10/25 09:50:50;;;;;;;20.70;19.50;;;;;;;;;;5050976;28;20542;-78
2023/10/25 09:53:22;;;;;;;21.40;20.00;;;;;;;;;;5051162;28;20445;-78
2023/10/25 09:55:54;;;;;;;21.07;19.73;;;;;;;;;;5050722;28;20435;-78
2023/10/25 09:58:22;;;;;;;22.47;20.87;;;;;;;;;;5051048;28;20489;-78
2023/10/25 10:00:49;;;;;;;20.80;19.50;;;;;;;;;;5054022;28;20834;-79
2023/10/25 10:03:22;;;;;;;21.40;20.00;;;;;;;;;;5053679;28;20959;-79
2023/10/25 10:05:52;;;;;;;20.57;19.27;;;;;;;;;;5053777;28;20435;-79
2023/10/25 10:08:22;;;;;;;20.67;19.47;;;;;;;;;;5053385;28;20482;-79
2023/10/25 10:10:54;;;;;;;20.87;19.20;;;;;;;;;;5052422;28;20451;-77
2023/10/25 10:13:22;;;;;;;21.07;19.60;;;;;;;;;;5054620;28;20477;-79
2023/10/25 10:16:00;;;;;;;21.20;19.80;;;;;;;;;;5056632;28;20453;-80
2023/10/25 10:18:28;;;;;;;20.17;18.77;;;;;;;;;;5057841;28;21000;-78
2023/10/25 10:21:02;;;;;;;21.93;20.20;;;;;;;;;;5058075;28;20457;-78
2023/10/25 10:23:34;;;;;;;21.17;19.40;;;;;;;;;;5058084;28;20449;-78
2023/10/25 10:26:04;;;;;;;21.30;19.90;;;;;;;;;;5058172;28;20492;-79
2023/10/25 10:28:42;;;;;;;21.57;20.10;;;;;;;;;;5058120;28;20473;-79
2023/10/25 10:31:10;;;;;;;22.27;20.50;;;;;;;;;;5057008;28;20454;-79
2023/10/25 10:33:43;;;;;;;22.27;20.80;;;;;;;;;;5054392;28;20481;-78
2023/10/25 10:36:10;;;;;;;21.73;20.23;;;;;;;;;;5058084;28;20439;-78
2023/10/25 10:38:52;;;;;;;20.63;19.37;;;;;;;;;;5053801;28;20452;-78
2023/10/25 10:41:28;;;;;;;22.53;20.73;;;;;;;;;;5054185;28;20500;-78
2023/10/25 10:43:56;;;;;;;21.70;20.23;;;;;;;;;;5057946;28;20412;-80
2023/10/25 10:46:23;;;;;;;21.60;20.27;;;;;;;;;;5058769;28;20451;-79
2023/10/25 10:48:51;;;;;;;22.37;20.80;;;;;;;;;;5053995;28;20484;-76
2023/10/25 10:51:18;;;;;;;22.00;20.43;;;;;;;;;;5053225;28;20450;-76
2023/10/25 10:53:45;;;;;;;23.30;21.63;;;;;;;;;;5059483;28;20498;-81
2023/10/25 10:56:12;;;;;;;22.03;20.57;;;;;;;;;;5060974;28;20450;-83
2023/10/25 10:58:41;;;;;;;21.87;20.57;;;;;;;;;;5056777;28;20466;-80
2023/10/25 11:01:08;;;;;;;22.40;20.90;;;;;;;;;;5056583;28;20450;-80
2023/10/25 11:03:38;;;;;;;22.33;20.83;;;;;;;;;;5055324;28;20453;-79
2023/10/25 11:06:05;;;;;;;21.77;20.47;;;;;;;;;;5055388;28;20475;-80
2023/10/25 11:08:32;;;;;;;22.63;20.87;;;;;;;;;;5056975;28;20471;-79
2023/10/25 11:11:00;;;;;;;22.30;20.67;;;;;;;;;;5056587;28;20462;-79
2023/10/25 11:13:28;;;;;;;22.33;20.77;;;;;;;;;;5055103;28;20482;-79
2023/10/25 11:16:03;;;;;;;21.80;20.20;;;;;;;;;;5055893;28;20446;-80
2023/10/25 11:18:30;;;;;;;23.27;21.60;;;;;;;;;;5056829;28;20955;-81
2023/10/25 11:20:57;;;;;;;22.90;21.40;;;;;;;;;;5056981;28;20478;-80
2023/10/25 11:23:24;;;;;;;22.57;21.10;;;;;;;;;;5057578;28;20505;-82
2023/10/25 11:25:52;;;;;;;23.80;22.10;;;;;;;;;;5055517;28;20458;-82
2023/10/25 11:28:19;;;;;;;22.10;20.73;;;;;;;;;;5052704;28;20489;-81
2023/10/25 11:30:48;;;;;;;22.10;20.47;;;;;;;;;;5060172;28;20556;-82
2023/10/25 11:33:16;;;;;;;22.57;21.17;;;;;;;;;;5061367;28;20486;-81
2023/10/25 11:35:44;;;;;;;23.23;21.47;;;;;;;;;;5062071;28;20461;-80
2023/10/25 11:38:11;;;;;;;21.73;20.17;;;;;;;;;;5057030;28;20479;-82
2023/10/25 11:40:39;;;;;;;22.73;21.33;;;;;;;;;;5056067;28;20501;-81
2023/10/25 11:43:07;;;;;;;22.37;20.87;;;;;;;;;;5055988;28;20518;-81
2023/10/25 11:45:34;;;;;;;22.10;20.70;;;;;;;;;;5060889;28;20750;-81
2023/10/25 11:48:03;;;;;;;21.13;19.73;;;;;;;;;;5058548;28;20466;-82
2023/10/25 11:50:32;;;;;;;22.27;20.87;;;;;;;;;;5066581;28;20490;-82
2023/10/25 11:52:59;;;;;;;21.20;20.00;;;;;;;;;;5055996;28;20482;-82
2023/10/25 11:55:27;;;;;;;21.90;20.43;;;;;;;;;;5059248;28;20476;-80
2023/10/25 11:57:54;;;;;;;22.53;21.13;;;;;;;;;;5073024;28;20485;-80
2023/10/25 12:00:21;;;;;;;22.23;20.73;;;;;;;;;;5074856;28;20446;-81
2023/10/25 12:02:48;;;;;;;21.47;20.17;;;;;;;;;;5056508;28;20434;-81
2023/10/25 12:05:15;;;;;;;21.43;20.03;;;;;;;;;;5065318;28;21147;-81
2023/10/25 12:07:44;;;;;;;21.97;20.67;;;;;;;;;;5063822;28;20479;-80
2023/10/25 12:10:11;;;;;;;21.10;19.77;;;;;;;;;;5055607;28;20462;-81
2023/10/25 12:12:38;;;;;;;21.57;20.20;;;;;;;;;;5055839;28;20482;-79
2023/10/25 12:15:07;;;;;;;21.63;20.00;;;;;;;;;;5054548;28;20457;-80
2023/10/25 12:17:35;;;;;;;20.80;19.70;;;;;;;;;;5056074;28;20528;-80
2023/10/25 12:20:02;;;;;;;20.97;19.67;;;;;;;;;;5055583;28;20450;-81
2023/10/25 12:22:29;;;;;;;20.73;19.37;;;;;;;;;;5055072;28;20443;-81
2023/10/25 12:24:57;;;;;;;20.23;19.03;;;;;;;;;;5054175;28;20477;-82
2023/10/25 12:27:24;;;;;;;20.03;18.83;;;;;;;;;;5056512;28;20478;-78
2023/10/25 12:29:51;;;;;;;19.67;18.57;;;;;;;;;;5072862;28;20453;-78
2023/10/25 12:32:21;;;;;;;20.30;19.00;;;;;;;;;;5072633;28;20420;-78
2023/10/25 12:34:48;;;;;;;19.90;18.90;;;;;;;;;;5071464;28;20493;-77
2023/10/25 12:37:15;;;;;;;21.73;20.03;;;;;;;;;;5072881;28;20492;-78
2023/10/25 12:39:42;;;;;;;19.93;18.70;;;;;;;;;;5072768;28;20446;-78
2023/10/25 12:42:11;;;;;;;18.50;17.50;;;;;;;;;;5072702;28;20438;-78
2023/10/25 12:44:38;;;;;;;19.90;18.60;;;;;;;;;;5071554;28;20472;-78
2023/10/25 12:47:06;;;;;;;21.07;19.77;;;;;;;;;;5063591;28;20505;-77
2023/10/25 12:49:33;;;;;;;19.80;18.60;;;;;;;;;;5052365;28;20446;-78
2023/10/25 12:52:02;;;;;;;19.60;18.40;;;;;;;;;;5052416;28;20480;-78
2023/10/25 12:54:29;;;;;;;20.67;18.87;;;;;;;;;;5051710;28;20813;-78
2023/10/25 12:56:56;;;;;;;20.33;18.60;;;;;;;;;;5052644;28;20474;-78
2023/10/25 12:59:24;;;;;;;20.23;18.80;;;;;;;;;;5052613;28;20544;-78
2023/10/25 13:01:51;;;;;;;19.63;18.50;;;;;;;;;;5052674;28;20447;-79
2023/10/25 13:04:18;;;;;;;20.07;18.80;;;;;;;;;;5051778;28;20520;-79
2023/10/25 13:06:45;;;;;;;20.37;19.07;;;;;;;;;;5051515;28;20513;-78
2023/10/25 13:09:13;;;;;;;20.67;19.33;;;;;;;;;;5052440;28;20438;-78
2023/10/25 13:11:40;;;;;;;20.80;19.23;;;;;;;;;;5052233;28;20798;-78
2023/10/25 13:14:07;;;;;;;21.67;20.47;;;;;;;;;;5051893;28;20473;-78
2023/10/25 13:16:35;;;;;;;21.30;19.97;;;;;;;;;;5052503;28;20470;-78
2023/10/25 13:19:02;;;;;;;21.40;20.07;;;;;;;;;;5051841;28;20781;-79
2023/10/25 13:21:29;;;;;;;21.07;19.87;;;;;;;;;;5052066;28;20451;-78
2023/10/25 13:23:56;;;;;;;21.83;20.50;;;;;;;;;;5051835;28;20450;-77
2023/10/25 13:26:23;;;;;;;20.17;18.97;;;;;;;;;;5052080;28;20842;-78
2023/10/25 13:28:51;;;;;;;22.37;20.97;;;;;;;;;;5052444;28;20442;-78
2023/10/25 13:31:18;;;;;;;20.13;18.93;;;;;;;;;;5051974;28;20425;-79
2023/10/25 13:33:46;;;;;;;21.03;19.83;;;;;;;;;;5058108;28;20497;-84
2023/10/25 13:36:13;;;;;;;21.30;20.00;;;;;;;;;;5059453;28;20477;-83
2023/10/25 13:38:40;;;;;;;21.97;20.17;;;;;;;;;;5054460;28;20534;-83
2023/10/25 13:41:07;;;;;;;22.10;20.60;;;;;;;;;;5058992;28;20445;-78
2023/10/25 13:43:39;;;;;;;20.87;19.30;;;;;;;;;;5077204;28;20495;-79
2023/10/25 13:46:06;;;;;;;20.13;18.93;;;;;;;;;;5078230;28;20453;-79
2023/10/25 13:48:33;;;;;;;20.27;19.13;;;;;;;;;;5078151;28;20504;-80
2023/10/25 13:51:02;;;;;;;21.57;20.03;;;;;;;;;;5081583;28;20413;-80
2023/10/25 13:53:29;;;;;;;21.87;20.27;;;;;;;;;;5080375;28;21056;-79
2023/10/25 13:55:56;;;;;;;21.90;20.40;;;;;;;;;;5080887;28;20446;-80
2023/10/25 13:58:23;;;;;;;21.10;19.80;;;;;;;;;;5081730;28;20508;-81
2023/10/25 14:00:50;;;;;;;21.80;20.37;;;;;;;;;;5081007;28;20489;-79
2023/10/25 14:03:20;;;;;;;23.63;22.03;;;;;;;;;;5081673;28;20447;-81
2023/10/25 14:05:47;;;;;;;23.30;21.80;;;;;;;;;;5080449;28;21235;-82
2023/10/25 14:08:16;;;;;;;23.20;21.53;;;;;;;;;;5081357;28;20465;-80
2023/10/25 14:10:44;;;;;;;20.73;19.53;;;;;;;;;;5082154;28;20500;-80
2023/10/25 14:13:11;;;;;;;22.70;20.90;;;;;;;;;;5082616;28;20492;-81
2023/10/25 14:15:39;;;;;;;21.20;19.80;;;;;;;;;;5081324;28;20996;-82
2023/10/25 14:18:07;;;;;;;25.30;23.20;;;;;;;;;;5083020;28;20472;-83
2023/10/25 14:20:37;;;;;;;23.43;21.93;;;;;;;;;;5083639;28;20428;-81